Sault Ste Marie Airport
CYAM : now visible

Airfield :











YOU CAN JOIN US ON...

 
LOGIN :

Register | Disclaimer

   EN    FR    IT 

 









Legend :    VFR   Marginal VFR   IFR   Intensive IFR   Very Intensive IFR
Visi :
Ceiling :
>= 8 km
>= 3000ft
5 to 8 km
1000 to 3000 ft
1500m to 5 km
500 to 1000 ft
800 to 1500m
200 to 500 ft
< 800m
< 200 ft
Symbols :   Thunderstorms  Fog  Heavy snow  Heavy precipitations  Wind > 20 kt






- Airport Elevation : 630 ft
- IATA code : YAM


CYAM - Sault Ste Marie

CURRENT METAR :
  • 240100Z 08007KT 15SM -SHSN FEW010 OVC037 M11/M14 A3029 RMK CF1CU8 CF TR SLP275

EXPIRED METARs :
  • 240000Z 08007KT 20SM -SHSN OVC039 M11/M14 A3029 RMK CU8 VIS N 10 SLP275
  • 232300Z 07008KT 20SM -SHSN BKN036 M11/M14 A3028 RMK CU7 SLP274

TAF TAF CYAM
Valid from the 24 at 02:00 until the 24 at 14:00 UTC


240138Z 2402/2414 08007KT P6SM -SHSN OVC030
FM241000 08008KT P6SM -SHSN OVC030
TEMPO 2410/2414 4SM -SHSN OVC020
PROB30 2412/2414 21/2SM -SHSN RMK NXT FCST BY 240800Z
CZYZ FIR / North America



MET'MAP, your aeronautical weather chart ! - Copyright ORBIFLY December 2007 - Disclaimer

ORBIFLY MET'MAP TEAM :

Programming & Development : Alexandra Zaïnal
Concept & original design : Baudouin d'Aumeries
Assistance for programming : Marc-Olivier Méhu
Technical & hardware support : Manuel Goepfert

Contact : metmap@orbifly.com




SOURCES & CREDITS :

   NOAA       Earth
Advisory